sensor_id;sensor_type;location;lat;lon;timestamp;P1;durP1;ratioP1;P2;durP2;ratioP2
64799;SDS011;51233;51.982;4.594;2024-02-26T00:00:44;1.03;;;0.90;;
64799;SDS011;51233;51.982;4.594;2024-02-26T00:03:46;1.20;;;1.10;;
64799;SDS011;51233;51.982;4.594;2024-02-26T00:06:47;1.13;;;0.95;;
64799;SDS011;51233;51.982;4.594;2024-02-26T00:09:48;1.40;;;0.80;;
64799;SDS011;51233;51.982;4.594;2024-02-26T00:12:48;3.25;;;1.38;;
64799;SDS011;51233;51.982;4.594;2024-02-26T00:15:48;2.60;;;1.38;;
64799;SDS011;51233;51.982;4.594;2024-02-26T00:18:48;1.80;;;1.30;;
64799;SDS011;51233;51.982;4.594;2024-02-26T00:21:48;2.35;;;1.25;;
64799;SDS011;51233;51.982;4.594;2024-02-26T00:24:49;1.45;;;1.35;;
64799;SDS011;51233;51.982;4.594;2024-02-26T00:27:49;1.10;;;1.00;;
64799;SDS011;51233;51.982;4.594;2024-02-26T00:30:49;3.20;;;1.50;;
64799;SDS011;51233;51.982;4.594;2024-02-26T00:33:49;1.00;;;0.87;;
64799;SDS011;51233;51.982;4.594;2024-02-26T00:36:49;0.75;;;0.75;;
64799;SDS011;51233;51.982;4.594;2024-02-26T00:39:50;1.00;;;0.82;;
64799;SDS011;51233;51.982;4.594;2024-02-26T00:42:50;0.80;;;0.73;;
64799;SDS011;51233;51.982;4.594;2024-02-26T00:45:50;0.65;;;0.65;;
64799;SDS011;51233;51.982;4.594;2024-02-26T00:48:52;1.25;;;1.15;;
64799;SDS011;51233;51.982;4.594;2024-02-26T00:51:52;0.50;;;0.50;;
64799;SDS011;51233;51.982;4.594;2024-02-26T00:54:52;0.70;;;0.70;;
64799;SDS011;51233;51.982;4.594;2024-02-26T00:57:53;0.50;;;0.50;;
64799;SDS011;51233;51.982;4.594;2024-02-26T01:00:53;0.47;;;0.38;;
64799;SDS011;51233;51.982;4.594;2024-02-26T01:03:53;2.87;;;1.00;;
64799;SDS011;51233;51.982;4.594;2024-02-26T01:06:53;0.68;;;0.68;;
64799;SDS011;51233;51.982;4.594;2024-02-26T01:09:53;0.60;;;0.60;;
64799;SDS011;51233;51.982;4.594;2024-02-26T01:12:53;0.40;;;0.40;;
64799;SDS011;51233;51.982;4.594;2024-02-26T01:15:54;0.57;;;0.57;;
64799;SDS011;51233;51.982;4.594;2024-02-26T01:18:54;0.63;;;0.63;;
64799;SDS011;51233;51.982;4.594;2024-02-26T01:21:54;1.20;;;0.85;;
64799;SDS011;51233;51.982;4.594;2024-02-26T01:24:54;1.30;;;1.20;;
64799;SDS011;51233;51.982;4.594;2024-02-26T01:27:55;0.63;;;0.60;;
64799;SDS011;51233;51.982;4.594;2024-02-26T01:30:55;0.97;;;0.70;;
64799;SDS011;51233;51.982;4.594;2024-02-26T01:33:55;0.80;;;0.80;;
64799;SDS011;51233;51.982;4.594;2024-02-26T01:36:56;0.95;;;0.75;;
64799;SDS011;51233;51.982;4.594;2024-02-26T01:39:56;1.75;;;1.05;;
64799;SDS011;51233;51.982;4.594;2024-02-26T01:42:56;0.40;;;0.40;;
64799;SDS011;51233;51.982;4.594;2024-02-26T01:45:56;0.93;;;0.93;;
64799;SDS011;51233;51.982;4.594;2024-02-26T01:48:56;0.70;;;0.68;;
64799;SDS011;51233;51.982;4.594;2024-02-26T01:51:57;0.93;;;0.90;;
64799;SDS011;51233;51.982;4.594;2024-02-26T01:54:58;1.73;;;1.20;;
64799;SDS011;51233;51.982;4.594;2024-02-26T01:57:58;0.55;;;0.55;;
64799;SDS011;51233;51.982;4.594;2024-02-26T02:00:59;1.23;;;1.13;;
64799;SDS011;51233;51.982;4.594;2024-02-26T02:03:59;0.60;;;0.60;;
64799;SDS011;51233;51.982;4.594;2024-02-26T02:06:59;1.67;;;1.02;;
64799;SDS011;51233;51.982;4.594;2024-02-26T02:10:00;2.97;;;0.97;;
64799;SDS011;51233;51.982;4.594;2024-02-26T02:13:00;0.95;;;0.80;;
64799;SDS011;51233;51.982;4.594;2024-02-26T02:16:00;1.60;;;1.50;;
64799;SDS011;51233;51.982;4.594;2024-02-26T02:19:00;1.25;;;1.15;;
64799;SDS011;51233;51.982;4.594;2024-02-26T02:22:01;1.35;;;1.27;;
64799;SDS011;51233;51.982;4.594;2024-02-26T02:25:01;1.20;;;1.20;;
64799;SDS011;51233;51.982;4.594;2024-02-26T02:28:01;1.48;;;0.80;;
64799;SDS011;51233;51.982;4.594;2024-02-26T02:31:01;1.13;;;1.00;;
64799;SDS011;51233;51.982;4.594;2024-02-26T02:34:01;0.57;;;0.57;;
64799;SDS011;51233;51.982;4.594;2024-02-26T02:37:02;1.13;;;1.07;;
64799;SDS011;51233;51.982;4.594;2024-02-26T02:40:02;4.40;;;2.10;;
64799;SDS011;51233;51.982;4.594;2024-02-26T02:43:03;1.50;;;1.40;;
64799;SDS011;51233;51.982;4.594;2024-02-26T02:46:04;1.35;;;1.25;;
64799;SDS011;51233;51.982;4.594;2024-02-26T02:49:08;0.82;;;0.82;;
64799;SDS011;51233;51.982;4.594;2024-02-26T02:52:08;1.33;;;0.45;;
64799;SDS011;51233;51.982;4.594;2024-02-26T02:55:08;1.00;;;0.77;;
64799;SDS011;51233;51.982;4.594;2024-02-26T02:58:08;0.43;;;0.40;;
64799;SDS011;51233;51.982;4.594;2024-02-26T03:01:08;1.20;;;0.77;;
64799;SDS011;51233;51.982;4.594;2024-02-26T03:04:09;3.57;;;1.93;;
64799;SDS011;51233;51.982;4.594;2024-02-26T03:07:09;0.90;;;0.90;;
64799;SDS011;51233;51.982;4.594;2024-02-26T03:10:09;1.45;;;1.35;;
64799;SDS011;51233;51.982;4.594;2024-02-26T03:13:09;1.50;;;1.40;;
64799;SDS011;51233;51.982;4.594;2024-02-26T03:16:10;1.65;;;1.55;;
64799;SDS011;51233;51.982;4.594;2024-02-26T03:19:10;0.63;;;0.63;;
64799;SDS011;51233;51.982;4.594;2024-02-26T03:22:10;2.47;;;2.25;;
64799;SDS011;51233;51.982;4.594;2024-02-26T03:25:10;2.25;;;2.05;;
64799;SDS011;51233;51.982;4.594;2024-02-26T03:28:10;1.73;;;1.63;;
64799;SDS011;51233;51.982;4.594;2024-02-26T03:31:11;1.65;;;1.08;;
64799;SDS011;51233;51.982;4.594;2024-02-26T03:34:12;0.50;;;0.50;;
64799;SDS011;51233;51.982;4.594;2024-02-26T03:37:14;1.70;;;1.60;;
64799;SDS011;51233;51.982;4.594;2024-02-26T03:40:15;0.80;;;0.80;;
64799;SDS011;51233;51.982;4.594;2024-02-26T03:43:16;0.80;;;0.80;;
64799;SDS011;51233;51.982;4.594;2024-02-26T03:46:16;0.82;;;0.80;;
64799;SDS011;51233;51.982;4.594;2024-02-26T03:49:17;1.95;;;1.60;;
64799;SDS011;51233;51.982;4.594;2024-02-26T03:52:17;0.65;;;0.65;;
64799;SDS011;51233;51.982;4.594;2024-02-26T03:55:18;1.23;;;1.13;;
64799;SDS011;51233;51.982;4.594;2024-02-26T03:58:21;1.60;;;1.50;;
64799;SDS011;51233;51.982;4.594;2024-02-26T04:01:21;1.35;;;1.25;;
64799;SDS011;51233;51.982;4.594;2024-02-26T04:04:21;3.17;;;1.27;;
64799;SDS011;51233;51.982;4.594;2024-02-26T04:07:21;0.80;;;0.80;;
64799;SDS011;51233;51.982;4.594;2024-02-26T04:10:22;0.57;;;0.52;;
64799;SDS011;51233;51.982;4.594;2024-02-26T04:13:22;0.38;;;0.38;;
64799;SDS011;51233;51.982;4.594;2024-02-26T04:16:22;0.60;;;0.60;;
64799;SDS011;51233;51.982;4.594;2024-02-26T04:19:22;3.00;;;1.08;;
64799;SDS011;51233;51.982;4.594;2024-02-26T04:22:23;0.67;;;0.67;;
64799;SDS011;51233;51.982;4.594;2024-02-26T04:25:23;1.23;;;1.13;;
64799;SDS011;51233;51.982;4.594;2024-02-26T04:28:24;1.35;;;1.25;;
64799;SDS011;51233;51.982;4.594;2024-02-26T04:31:26;0.45;;;0.45;;
64799;SDS011;51233;51.982;4.594;2024-02-26T04:34:26;1.13;;;1.13;;
64799;SDS011;51233;51.982;4.594;2024-02-26T04:37:26;1.05;;;0.50;;
64799;SDS011;51233;51.982;4.594;2024-02-26T04:40:31;0.60;;;0.60;;
64799;SDS011;51233;51.982;4.594;2024-02-26T04:43:31;0.63;;;0.40;;
64799;SDS011;51233;51.982;4.594;2024-02-26T04:46:31;2.65;;;2.45;;
64799;SDS011;51233;51.982;4.594;2024-02-26T04:49:31;1.08;;;1.08;;
64799;SDS011;51233;51.982;4.594;2024-02-26T04:52:31;1.63;;;1.42;;
64799;SDS011;51233;51.982;4.594;2024-02-26T04:55:31;1.38;;;1.27;;
64799;SDS011;51233;51.982;4.594;2024-02-26T04:58:32;0.87;;;0.80;;
64799;SDS011;51233;51.982;4.594;2024-02-26T05:01:32;2.60;;;2.40;;
64799;SDS011;51233;51.982;4.594;2024-02-26T05:04:32;1.67;;;1.57;;
64799;SDS011;51233;51.982;4.594;2024-02-26T05:07:33;0.77;;;0.67;;
64799;SDS011;51233;51.982;4.594;2024-02-26T05:10:33;1.10;;;1.00;;
64799;SDS011;51233;51.982;4.594;2024-02-26T05:13:33;2.07;;;1.70;;
64799;SDS011;51233;51.982;4.594;2024-02-26T05:16:34;3.55;;;3.30;;
64799;SDS011;51233;51.982;4.594;2024-02-26T05:19:34;6.87;;;3.07;;
64799;SDS011;51233;51.982;4.594;2024-02-26T05:22:34;0.93;;;0.93;;
64799;SDS011;51233;51.982;4.594;2024-02-26T05:25:34;1.87;;;1.77;;
64799;SDS011;51233;51.982;4.594;2024-02-26T05:28:34;1.27;;;0.83;;
64799;SDS011;51233;51.982;4.594;2024-02-26T05:31:35;1.60;;;1.50;;
64799;SDS011;51233;51.982;4.594;2024-02-26T05:34:35;5.80;;;5.20;;
64799;SDS011;51233;51.982;4.594;2024-02-26T05:37:35;6.57;;;5.77;;
64799;SDS011;51233;51.982;4.594;2024-02-26T05:40:35;6.13;;;5.63;;
64799;SDS011;51233;51.982;4.594;2024-02-26T05:43:35;6.80;;;6.20;;
64799;SDS011;51233;51.982;4.594;2024-02-26T05:46:36;6.10;;;5.53;;
64799;SDS011;51233;51.982;4.594;2024-02-26T05:49:36;3.33;;;3.07;;
64799;SDS011;51233;51.982;4.594;2024-02-26T05:52:36;1.78;;;1.68;;
64799;SDS011;51233;51.982;4.594;2024-02-26T05:55:38;3.22;;;2.92;;
64799;SDS011;51233;51.982;4.594;2024-02-26T05:58:38;3.97;;;3.67;;
64799;SDS011;51233;51.982;4.594;2024-02-26T06:01:38;1.40;;;1.33;;
64799;SDS011;51233;51.982;4.594;2024-02-26T06:04:39;1.42;;;1.38;;
64799;SDS011;51233;51.982;4.594;2024-02-26T06:07:39;3.85;;;3.60;;
64799;SDS011;51233;51.982;4.594;2024-02-26T06:10:39;2.17;;;1.70;;
64799;SDS011;51233;51.982;4.594;2024-02-26T06:13:39;3.10;;;2.30;;
64799;SDS011;51233;51.982;4.594;2024-02-26T06:16:40;2.50;;;2.30;;
64799;SDS011;51233;51.982;4.594;2024-02-26T06:19:40;1.90;;;1.80;;
64799;SDS011;51233;51.982;4.594;2024-02-26T06:22:40;1.55;;;1.45;;
64799;SDS011;51233;51.982;4.594;2024-02-26T06:25:41;2.27;;;2.10;;
64799;SDS011;51233;51.982;4.594;2024-02-26T06:28:42;1.58;;;1.30;;
64799;SDS011;51233;51.982;4.594;2024-02-26T06:31:42;5.30;;;4.87;;
64799;SDS011;51233;51.982;4.594;2024-02-26T06:34:43;9.02;;;6.38;;
64799;SDS011;51233;51.982;4.594;2024-02-26T06:37:43;4.70;;;4.30;;
64799;SDS011;51233;51.982;4.594;2024-02-26T06:40:44;3.70;;;3.40;;
64799;SDS011;51233;51.982;4.594;2024-02-26T06:43:44;5.88;;;5.10;;
64799;SDS011;51233;51.982;4.594;2024-02-26T06:46:44;1.60;;;1.50;;
64799;SDS011;51233;51.982;4.594;2024-02-26T06:49:44;7.43;;;5.82;;
64799;SDS011;51233;51.982;4.594;2024-02-26T06:52:44;5.38;;;4.82;;
64799;SDS011;51233;51.982;4.594;2024-02-26T06:55:46;7.05;;;6.45;;
64799;SDS011;51233;51.982;4.594;2024-02-26T06:58:46;6.63;;;5.38;;
64799;SDS011;51233;51.982;4.594;2024-02-26T07:01:46;2.53;;;2.10;;
64799;SDS011;51233;51.982;4.594;2024-02-26T07:04:47;4.90;;;4.43;;
64799;SDS011;51233;51.982;4.594;2024-02-26T07:07:47;7.88;;;7.07;;
64799;SDS011;51233;51.982;4.594;2024-02-26T07:10:47;7.15;;;6.45;;
64799;SDS011;51233;51.982;4.594;2024-02-26T07:13:48;10.30;;;8.05;;
64799;SDS011;51233;51.982;4.594;2024-02-26T07:16:49;4.80;;;4.25;;
64799;SDS011;51233;51.982;4.594;2024-02-26T07:19:49;6.43;;;4.38;;
64799;SDS011;51233;51.982;4.594;2024-02-26T07:22:50;7.03;;;6.32;;
64799;SDS011;51233;51.982;4.594;2024-02-26T07:25:50;4.30;;;3.90;;
64799;SDS011;51233;51.982;4.594;2024-02-26T07:28:52;6.97;;;6.35;;
64799;SDS011;51233;51.982;4.594;2024-02-26T07:31:53;5.53;;;4.88;;
64799;SDS011;51233;51.982;4.594;2024-02-26T07:34:53;3.55;;;0.75;;
64799;SDS011;51233;51.982;4.594;2024-02-26T07:37:53;2.70;;;2.17;;
64799;SDS011;51233;51.982;4.594;2024-02-26T07:40:53;4.90;;;4.43;;
64799;SDS011;51233;51.982;4.594;2024-02-26T07:43:53;3.03;;;2.77;;
64799;SDS011;51233;51.982;4.594;2024-02-26T07:46:54;2.50;;;2.30;;
64799;SDS011;51233;51.982;4.594;2024-02-26T07:49:54;6.20;;;5.70;;
64799;SDS011;51233;51.982;4.594;2024-02-26T07:52:54;2.50;;;2.28;;
64799;SDS011;51233;51.982;4.594;2024-02-26T07:55:54;4.97;;;4.57;;
64799;SDS011;51233;51.982;4.594;2024-02-26T07:58:54;5.53;;;5.03;;
64799;SDS011;51233;51.982;4.594;2024-02-26T08:01:54;6.10;;;5.56;;
64799;SDS011;51233;51.982;4.594;2024-02-26T08:04:55;3.88;;;3.58;;
64799;SDS011;51233;51.982;4.594;2024-02-26T08:07:55;3.60;;;3.22;;
64799;SDS011;51233;51.982;4.594;2024-02-26T08:10:56;3.20;;;2.92;;
64799;SDS011;51233;51.982;4.594;2024-02-26T08:13:56;2.67;;;2.47;;
64799;SDS011;51233;51.982;4.594;2024-02-26T08:16:56;2.72;;;2.40;;
64799;SDS011;51233;51.982;4.594;2024-02-26T08:19:56;4.35;;;4.03;;
64799;SDS011;51233;51.982;4.594;2024-02-26T08:22:57;5.57;;;5.00;;
64799;SDS011;51233;51.982;4.594;2024-02-26T08:25:57;3.38;;;3.08;;
64799;SDS011;51233;51.982;4.594;2024-02-26T08:28:58;2.97;;;2.45;;
64799;SDS011;51233;51.982;4.594;2024-02-26T08:31:58;4.70;;;4.30;;
64799;SDS011;51233;51.982;4.594;2024-02-26T08:34:59;2.38;;;2.22;;
64799;SDS011;51233;51.982;4.594;2024-02-26T08:37:59;3.40;;;3.17;;
64799;SDS011;51233;51.982;4.594;2024-02-26T08:41:00;3.13;;;2.93;;
64799;SDS011;51233;51.982;4.594;2024-02-26T08:44:01;1.90;;;1.67;;
64799;SDS011;51233;51.982;4.594;2024-02-26T08:47:01;2.47;;;2.27;;
64799;SDS011;51233;51.982;4.594;2024-02-26T08:50:02;3.77;;;3.40;;
64799;SDS011;51233;51.982;4.594;2024-02-26T08:53:03;4.20;;;3.75;;
64799;SDS011;51233;51.982;4.594;2024-02-26T08:56:04;3.47;;;3.17;;
64799;SDS011;51233;51.982;4.594;2024-02-26T08:59:04;2.50;;;2.22;;
64799;SDS011;51233;51.982;4.594;2024-02-26T09:02:04;2.27;;;2.07;;
64799;SDS011;51233;51.982;4.594;2024-02-26T09:05:05;0.95;;;0.93;;
64799;SDS011;51233;51.982;4.594;2024-02-26T09:08:05;3.03;;;2.83;;
64799;SDS011;51233;51.982;4.594;2024-02-26T09:11:06;2.22;;;2.03;;
64799;SDS011;51233;51.982;4.594;2024-02-26T09:14:06;2.78;;;2.58;;
64799;SDS011;51233;51.982;4.594;2024-02-26T09:17:06;3.60;;;2.95;;
64799;SDS011;51233;51.982;4.594;2024-02-26T09:20:07;2.38;;;2.17;;
64799;SDS011;51233;51.982;4.594;2024-02-26T09:23:09;2.65;;;2.45;;
64799;SDS011;51233;51.982;4.594;2024-02-26T09:26:11;2.70;;;2.50;;
64799;SDS011;51233;51.982;4.594;2024-02-26T09:29:12;2.95;;;2.75;;
64799;SDS011;51233;51.982;4.594;2024-02-26T09:32:12;3.50;;;3.03;;
64799;SDS011;51233;51.982;4.594;2024-02-26T09:35:12;0.53;;;0.30;;
64799;SDS011;51233;51.982;4.594;2024-02-26T09:38:13;0.63;;;0.63;;
64799;SDS011;51233;51.982;4.594;2024-02-26T09:41:16;6.70;;;2.13;;
64799;SDS011;51233;51.982;4.594;2024-02-26T09:44:18;1.85;;;1.30;;
64799;SDS011;51233;51.982;4.594;2024-02-26T09:47:23;1.58;;;1.48;;
64799;SDS011;51233;51.982;4.594;2024-02-26T09:50:23;0.97;;;0.80;;
64799;SDS011;51233;51.982;4.594;2024-02-26T09:53:24;1.05;;;1.00;;
64799;SDS011;51233;51.982;4.594;2024-02-26T09:56:24;1.60;;;1.50;;
64799;SDS011;51233;51.982;4.594;2024-02-26T09:59:25;0.50;;;0.50;;
64799;SDS011;51233;51.982;4.594;2024-02-26T10:02:26;1.67;;;1.57;;
64799;SDS011;51233;51.982;4.594;2024-02-26T10:05:27;1.13;;;1.03;;
64799;SDS011;51233;51.982;4.594;2024-02-26T10:08:27;2.22;;;2.03;;
64799;SDS011;51233;51.982;4.594;2024-02-26T10:11:28;2.47;;;2.28;;
64799;SDS011;51233;51.982;4.594;2024-02-26T10:14:30;1.50;;;1.40;;
64799;SDS011;51233;51.982;4.594;2024-02-26T10:17:30;2.30;;;2.10;;
64799;SDS011;51233;51.982;4.594;2024-02-26T10:20:30;2.42;;;2.22;;
64799;SDS011;51233;51.982;4.594;2024-02-26T10:23:31;1.47;;;1.37;;
64799;SDS011;51233;51.982;4.594;2024-02-26T10:26:31;0.90;;;0.90;;
64799;SDS011;51233;51.982;4.594;2024-02-26T10:29:32;0.98;;;0.98;;
64799;SDS011;51233;51.982;4.594;2024-02-26T10:32:32;0.38;;;0.38;;
64799;SDS011;51233;51.982;4.594;2024-02-26T10:35:32;0.47;;;0.45;;
64799;SDS011;51233;51.982;4.594;2024-02-26T10:38:34;0.75;;;0.75;;
64799;SDS011;51233;51.982;4.594;2024-02-26T10:41:35;2.97;;;2.25;;
64799;SDS011;51233;51.982;4.594;2024-02-26T10:44:35;2.33;;;2.13;;
64799;SDS011;51233;51.982;4.594;2024-02-26T10:47:35;6.57;;;2.45;;
64799;SDS011;51233;51.982;4.594;2024-02-26T10:50:35;0.57;;;0.55;;
64799;SDS011;51233;51.982;4.594;2024-02-26T10:53:36;2.05;;;1.92;;
64799;SDS011;51233;51.982;4.594;2024-02-26T10:56:36;1.60;;;1.50;;
64799;SDS011;51233;51.982;4.594;2024-02-26T10:59:37;0.35;;;0.35;;
64799;SDS011;51233;51.982;4.594;2024-02-26T11:02:39;1.23;;;1.20;;
64799;SDS011;51233;51.982;4.594;2024-02-26T11:05:40;0.50;;;0.50;;
64799;SDS011;51233;51.982;4.594;2024-02-26T11:08:41;1.43;;;1.33;;
64799;SDS011;51233;51.982;4.594;2024-02-26T11:11:41;0.60;;;0.60;;
64799;SDS011;51233;51.982;4.594;2024-02-26T11:14:42;2.53;;;2.10;;
64799;SDS011;51233;51.982;4.594;2024-02-26T11:17:44;0.50;;;0.50;;
64799;SDS011;51233;51.982;4.594;2024-02-26T11:20:46;0.52;;;0.52;;
64799;SDS011;51233;51.982;4.594;2024-02-26T11:23:46;0.45;;;0.45;;
64799;SDS011;51233;51.982;4.594;2024-02-26T11:26:47;2.45;;;0.70;;
64799;SDS011;51233;51.982;4.594;2024-02-26T11:29:50;0.47;;;0.47;;
64799;SDS011;51233;51.982;4.594;2024-02-26T11:32:51;0.30;;;0.30;;
64799;SDS011;51233;51.982;4.594;2024-02-26T11:35:53;1.88;;;1.70;;
64799;SDS011;51233;51.982;4.594;2024-02-26T11:38:54;0.40;;;0.40;;
64799;SDS011;51233;51.982;4.594;2024-02-26T11:41:55;1.52;;;0.85;;
64799;SDS011;51233;51.982;4.594;2024-02-26T11:44:55;0.60;;;0.60;;
64799;SDS011;51233;51.982;4.594;2024-02-26T11:48:00;1.23;;;1.17;;
64799;SDS011;51233;51.982;4.594;2024-02-26T11:51:01;1.25;;;1.15;;
64799;SDS011;51233;51.982;4.594;2024-02-26T11:54:01;0.30;;;0.30;;
64799;SDS011;51233;51.982;4.594;2024-02-26T11:57:02;0.60;;;0.60;;
64799;SDS011;51233;51.982;4.594;2024-02-26T12:00:14;1.23;;;0.35;;
64799;SDS011;51233;51.982;4.594;2024-02-26T12:03:22;0.88;;;0.88;;
64799;SDS011;51233;51.982;4.594;2024-02-26T12:06:22;0.87;;;0.87;;
64799;SDS011;51233;51.982;4.594;2024-02-26T12:09:32;4.90;;;1.00;;
64799;SDS011;51233;51.982;4.594;2024-02-26T12:12:32;1.17;;;1.10;;
64799;SDS011;51233;51.982;4.594;2024-02-26T12:15:37;2.17;;;1.42;;
64799;SDS011;51233;51.982;4.594;2024-02-26T12:18:38;0.60;;;0.60;;
64799;SDS011;51233;51.982;4.594;2024-02-26T12:21:41;0.88;;;0.88;;
64799;SDS011;51233;51.982;4.594;2024-02-26T12:24:44;1.23;;;1.07;;
64799;SDS011;51233;51.982;4.594;2024-02-26T12:27:44;0.40;;;0.40;;
64799;SDS011;51233;51.982;4.594;2024-02-26T12:30:44;1.83;;;1.73;;
64799;SDS011;51233;51.982;4.594;2024-02-26T12:33:49;0.65;;;0.65;;
64799;SDS011;51233;51.982;4.594;2024-02-26T12:36:49;1.45;;;1.08;;
64799;SDS011;51233;51.982;4.594;2024-02-26T12:39:49;1.15;;;0.85;;
64799;SDS011;51233;51.982;4.594;2024-02-26T12:42:50;0.63;;;0.63;;
64799;SDS011;51233;51.982;4.594;2024-02-26T12:45:50;2.88;;;1.42;;
64799;SDS011;51233;51.982;4.594;2024-02-26T12:48:50;0.65;;;0.65;;
64799;SDS011;51233;51.982;4.594;2024-02-26T12:51:50;1.30;;;1.20;;
64799;SDS011;51233;51.982;4.594;2024-02-26T12:54:51;1.92;;;1.75;;
64799;SDS011;51233;51.982;4.594;2024-02-26T12:57:51;0.68;;;0.68;;
64799;SDS011;51233;51.982;4.594;2024-02-26T13:00:52;0.60;;;0.60;;
64799;SDS011;51233;51.982;4.594;2024-02-26T13:03:52;1.48;;;1.10;;
64799;SDS011;51233;51.982;4.594;2024-02-26T13:06:53;0.47;;;0.47;;
64799;SDS011;51233;51.982;4.594;2024-02-26T13:09:53;1.17;;;1.08;;
64799;SDS011;51233;51.982;4.594;2024-02-26T13:12:53;0.85;;;0.85;;
64799;SDS011;51233;51.982;4.594;2024-02-26T13:16:07;0.55;;;0.55;;
64799;SDS011;51233;51.982;4.594;2024-02-26T13:19:09;0.43;;;0.43;;
64799;SDS011;51233;51.982;4.594;2024-02-26T13:22:09;1.33;;;1.15;;
64799;SDS011;51233;51.982;4.594;2024-02-26T13:25:10;1.30;;;1.20;;
64799;SDS011;51233;51.982;4.594;2024-02-26T13:28:14;1.90;;;1.20;;
64799;SDS011;51233;51.982;4.594;2024-02-26T13:31:15;2.88;;;1.70;;
64799;SDS011;51233;51.982;4.594;2024-02-26T13:34:28;0.60;;;0.60;;
64799;SDS011;51233;51.982;4.594;2024-02-26T13:37:30;1.20;;;1.10;;
64799;SDS011;51233;51.982;4.594;2024-02-26T13:40:30;0.95;;;0.95;;
64799;SDS011;51233;51.982;4.594;2024-02-26T13:43:30;1.60;;;1.50;;
64799;SDS011;51233;51.982;4.594;2024-02-26T13:46:30;1.35;;;1.25;;
64799;SDS011;51233;51.982;4.594;2024-02-26T13:49:31;0.93;;;0.85;;
64799;SDS011;51233;51.982;4.594;2024-02-26T13:52:31;0.65;;;0.40;;
64799;SDS011;51233;51.982;4.594;2024-02-26T13:55:32;0.50;;;0.50;;
64799;SDS011;51233;51.982;4.594;2024-02-26T13:58:33;0.63;;;0.43;;
64799;SDS011;51233;51.982;4.594;2024-02-26T14:01:33;1.30;;;0.60;;
64799;SDS011;51233;51.982;4.594;2024-02-26T14:04:33;0.50;;;0.50;;
64799;SDS011;51233;51.982;4.594;2024-02-26T14:07:34;1.15;;;1.00;;
64799;SDS011;51233;51.982;4.594;2024-02-26T14:10:34;1.53;;;1.10;;
64799;SDS011;51233;51.982;4.594;2024-02-26T14:13:34;0.32;;;0.32;;
64799;SDS011;51233;51.982;4.594;2024-02-26T14:16:34;1.00;;;1.00;;
64799;SDS011;51233;51.982;4.594;2024-02-26T14:19:35;0.60;;;0.60;;
64799;SDS011;51233;51.982;4.594;2024-02-26T14:22:35;0.90;;;0.90;;
64799;SDS011;51233;51.982;4.594;2024-02-26T14:25:36;0.53;;;0.40;;
64799;SDS011;51233;51.982;4.594;2024-02-26T14:28:36;0.50;;;0.50;;
64799;SDS011;51233;51.982;4.594;2024-02-26T14:31:36;0.97;;;0.50;;
64799;SDS011;51233;51.982;4.594;2024-02-26T14:34:37;0.87;;;0.83;;
64799;SDS011;51233;51.982;4.594;2024-02-26T14:37:37;1.20;;;1.10;;
64799;SDS011;51233;51.982;4.594;2024-02-26T14:40:37;0.57;;;0.57;;
64799;SDS011;51233;51.982;4.594;2024-02-26T14:43:38;0.67;;;0.67;;
64799;SDS011;51233;51.982;4.594;2024-02-26T14:46:38;1.08;;;0.93;;
64799;SDS011;51233;51.982;4.594;2024-02-26T14:49:38;0.70;;;0.70;;
64799;SDS011;51233;51.982;4.594;2024-02-26T14:52:38;0.40;;;0.40;;
64799;SDS011;51233;51.982;4.594;2024-02-26T14:55:39;0.40;;;0.40;;
64799;SDS011;51233;51.982;4.594;2024-02-26T14:58:39;0.30;;;0.30;;
64799;SDS011;51233;51.982;4.594;2024-02-26T15:01:39;0.20;;;0.20;;
64799;SDS011;51233;51.982;4.594;2024-02-26T15:04:39;0.43;;;0.43;;
64799;SDS011;51233;51.982;4.594;2024-02-26T15:07:39;1.35;;;1.25;;
64799;SDS011;51233;51.982;4.594;2024-02-26T15:10:40;1.73;;;1.03;;
64799;SDS011;51233;51.982;4.594;2024-02-26T15:13:42;0.43;;;0.43;;
64799;SDS011;51233;51.982;4.594;2024-02-26T15:16:42;0.77;;;0.77;;
64799;SDS011;51233;51.982;4.594;2024-02-26T15:19:43;0.47;;;0.47;;
64799;SDS011;51233;51.982;4.594;2024-02-26T15:22:43;1.40;;;1.30;;
64799;SDS011;51233;51.982;4.594;2024-02-26T15:25:44;0.40;;;0.40;;
64799;SDS011;51233;51.982;4.594;2024-02-26T15:28:44;2.50;;;1.83;;
64799;SDS011;51233;51.982;4.594;2024-02-26T15:31:44;0.63;;;0.35;;
64799;SDS011;51233;51.982;4.594;2024-02-26T15:34:44;0.64;;;0.64;;
64799;SDS011;51233;51.982;4.594;2024-02-26T15:37:44;0.50;;;0.50;;
64799;SDS011;51233;51.982;4.594;2024-02-26T15:40:45;0.50;;;0.40;;
64799;SDS011;51233;51.982;4.594;2024-02-26T15:43:47;0.73;;;0.32;;
64799;SDS011;51233;51.982;4.594;2024-02-26T15:46:47;3.42;;;1.27;;
64799;SDS011;51233;51.982;4.594;2024-02-26T15:49:47;0.30;;;0.30;;
64799;SDS011;51233;51.982;4.594;2024-02-26T15:52:47;0.52;;;0.52;;
64799;SDS011;51233;51.982;4.594;2024-02-26T15:55:47;1.65;;;0.82;;
64799;SDS011;51233;51.982;4.594;2024-02-26T15:58:48;0.30;;;0.30;;
64799;SDS011;51233;51.982;4.594;2024-02-26T16:01:48;0.40;;;0.40;;
64799;SDS011;51233;51.982;4.594;2024-02-26T16:04:49;0.40;;;0.40;;
64799;SDS011;51233;51.982;4.594;2024-02-26T16:07:51;2.30;;;1.07;;
64799;SDS011;51233;51.982;4.594;2024-02-26T16:10:53;2.70;;;2.00;;
64799;SDS011;51233;51.982;4.594;2024-02-26T16:13:56;1.27;;;1.03;;
64799;SDS011;51233;51.982;4.594;2024-02-26T16:16:59;0.55;;;0.55;;
64799;SDS011;51233;51.982;4.594;2024-02-26T16:20:00;1.15;;;0.43;;
64799;SDS011;51233;51.982;4.594;2024-02-26T16:23:01;0.45;;;0.45;;
64799;SDS011;51233;51.982;4.594;2024-02-26T16:26:06;2.25;;;0.60;;
64799;SDS011;51233;51.982;4.594;2024-02-26T16:29:06;1.40;;;1.05;;
64799;SDS011;51233;51.982;4.594;2024-02-26T16:32:06;1.23;;;0.60;;
64799;SDS011;51233;51.982;4.594;2024-02-26T16:35:08;0.57;;;0.57;;
64799;SDS011;51233;51.982;4.594;2024-02-26T16:38:10;4.13;;;1.20;;
64799;SDS011;51233;51.982;4.594;2024-02-26T16:41:13;1.70;;;1.00;;
64799;SDS011;51233;51.982;4.594;2024-02-26T16:44:13;0.47;;;0.47;;
64799;SDS011;51233;51.982;4.594;2024-02-26T16:47:14;0.70;;;0.45;;
64799;SDS011;51233;51.982;4.594;2024-02-26T16:50:14;1.58;;;0.85;;
64799;SDS011;51233;51.982;4.594;2024-02-26T16:53:14;1.52;;;1.08;;
64799;SDS011;51233;51.982;4.594;2024-02-26T16:56:15;0.40;;;0.40;;
64799;SDS011;51233;51.982;4.594;2024-02-26T16:59:15;0.47;;;0.47;;
64799;SDS011;51233;51.982;4.594;2024-02-26T17:02:16;0.68;;;0.35;;
64799;SDS011;51233;51.982;4.594;2024-02-26T17:05:16;1.10;;;0.88;;
64799;SDS011;51233;51.982;4.594;2024-02-26T17:08:17;2.63;;;1.90;;
64799;SDS011;51233;51.982;4.594;2024-02-26T17:11:25;1.48;;;1.13;;
64799;SDS011;51233;51.982;4.594;2024-02-26T17:14:27;2.90;;;1.30;;
64799;SDS011;51233;51.982;4.594;2024-02-26T17:17:31;0.45;;;0.45;;
64799;SDS011;51233;51.982;4.594;2024-02-26T17:20:31;0.95;;;0.95;;
64799;SDS011;51233;51.982;4.594;2024-02-26T17:23:32;2.00;;;1.45;;
64799;SDS011;51233;51.982;4.594;2024-02-26T17:26:33;1.58;;;1.45;;
64799;SDS011;51233;51.982;4.594;2024-02-26T17:29:33;0.73;;;0.35;;
64799;SDS011;51233;51.982;4.594;2024-02-26T17:32:34;1.30;;;1.02;;
64799;SDS011;51233;51.982;4.594;2024-02-26T17:35:34;2.60;;;1.80;;
64799;SDS011;51233;51.982;4.594;2024-02-26T17:38:35;1.35;;;0.93;;
64799;SDS011;51233;51.982;4.594;2024-02-26T17:41:36;1.25;;;1.10;;
64799;SDS011;51233;51.982;4.594;2024-02-26T17:44:36;1.17;;;1.08;;
64799;SDS011;51233;51.982;4.594;2024-02-26T17:47:37;2.80;;;1.63;;
64799;SDS011;51233;51.982;4.594;2024-02-26T17:50:37;5.83;;;1.77;;
64799;SDS011;51233;51.982;4.594;2024-02-26T17:53:37;2.97;;;1.60;;
64799;SDS011;51233;51.982;4.594;2024-02-26T17:56:38;0.43;;;0.40;;
64799;SDS011;51233;51.982;4.594;2024-02-26T17:59:38;1.75;;;1.38;;
64799;SDS011;51233;51.982;4.594;2024-02-26T18:02:39;1.90;;;0.90;;
64799;SDS011;51233;51.982;4.594;2024-02-26T18:05:39;4.78;;;1.90;;
64799;SDS011;51233;51.982;4.594;2024-02-26T18:11:45;3.28;;;1.60;;